createdAt,value
2018-08-24T00:01:18.897Z,93.50
2018-08-24T00:03:47.431Z,93.20
2018-08-24T00:06:16.001Z,93.00
2018-08-24T00:08:45.395Z,93.00
2018-08-24T00:11:13.988Z,93.10
2018-08-24T00:13:42.540Z,92.90
2018-08-24T00:16:11.069Z,93.10
2018-08-24T00:18:39.605Z,92.90
2018-08-24T00:21:08.215Z,93.10
2018-08-24T00:23:36.787Z,93.10
2018-08-24T00:26:05.380Z,93.00
2018-08-24T00:28:33.887Z,93.20
2018-08-24T00:31:02.446Z,93.10
2018-08-24T00:33:31.021Z,93.10
2018-08-24T00:35:59.688Z,93.40
2018-08-24T00:38:28.274Z,93.80
2018-08-24T00:40:57.350Z,93.90
2018-08-24T00:43:26.897Z,93.40
2018-08-24T00:45:55.786Z,93.50
2018-08-24T00:48:24.307Z,93.40
2018-08-24T00:50:52.889Z,93.30
2018-08-24T00:53:21.429Z,93.20
2018-08-24T00:55:49.980Z,93.30
2018-08-24T00:58:18.507Z,93.30
2018-08-24T01:00:47.147Z,93.10
2018-08-24T01:03:15.718Z,93.20
2018-08-24T01:05:44.290Z,93.00
2018-08-24T01:08:12.825Z,92.80
2018-08-24T01:10:41.394Z,92.80
2018-08-24T01:13:13.791Z,92.60
2018-08-24T01:15:49.999Z,92.50
2018-08-24T01:18:21.656Z,92.50
2018-08-24T01:20:50.243Z,92.40
2018-08-24T01:23:20.877Z,92.40
2018-08-24T01:25:49.700Z,92.30
2018-08-24T01:28:19.300Z,92.40
2018-08-24T01:30:48.325Z,92.40
2018-08-24T01:33:17.656Z,92.60
2018-08-24T01:35:47.086Z,92.40
2018-08-24T01:38:15.635Z,92.30
2018-08-24T01:40:44.222Z,92.30
2018-08-24T01:43:12.800Z,92.60
2018-08-24T01:45:41.379Z,92.50
2018-08-24T01:48:10.312Z,92.50
2018-08-24T01:50:38.888Z,92.60
2018-08-24T01:53:07.440Z,92.80
2018-08-24T01:55:35.990Z,92.70
2018-08-24T01:58:04.787Z,92.80
2018-08-24T02:00:33.404Z,93.10
2018-08-24T02:03:01.947Z,93.00
2018-08-24T02:05:30.531Z,93.10
2018-08-24T02:07:59.037Z,92.80
2018-08-24T02:10:28.883Z,93.00
2018-08-24T02:13:03.047Z,93.00
2018-08-24T02:15:31.581Z,93.20
2018-08-24T02:18:05.613Z,93.10
2018-08-24T02:20:39.337Z,92.80
2018-08-24T02:23:13.023Z,93.10
2018-08-24T02:25:41.914Z,93.10
2018-08-24T02:28:10.423Z,93.10
2018-08-24T02:30:38.969Z,93.50
2018-08-24T02:33:07.496Z,93.60
2018-08-24T02:35:36.064Z,93.60
2018-08-24T02:38:05.343Z,93.30
2018-08-24T02:40:33.877Z,93.20
2018-08-24T02:43:02.479Z,93.00
2018-08-24T02:45:31.093Z,93.10
2018-08-24T02:48:00.263Z,93.10
2018-08-24T02:50:28.822Z,93.10
2018-08-24T02:52:57.424Z,93.40
2018-08-24T02:55:26.090Z,93.40
2018-08-24T02:57:54.662Z,93.20
2018-08-24T03:00:23.637Z,93.20
2018-08-24T03:02:52.142Z,93.50
2018-08-24T03:05:20.821Z,93.30
2018-08-24T03:07:49.288Z,93.30
2018-08-24T03:10:17.956Z,93.30
2018-08-24T03:12:46.478Z,93.50
2018-08-24T03:15:15.212Z,93.30
2018-08-24T03:17:48.984Z,93.40
2018-08-24T03:20:17.523Z,93.30
2018-08-24T03:22:46.369Z,93.40
2018-08-24T03:25:14.890Z,93.40
2018-08-24T03:27:43.415Z,93.50
2018-08-24T03:30:11.978Z,93.60
2018-08-24T03:32:40.519Z,93.60
2018-08-24T03:35:09.070Z,93.80
2018-08-24T03:37:37.627Z,93.80
2018-08-24T03:40:06.720Z,93.60
2018-08-24T03:42:35.278Z,93.70
2018-08-24T03:45:03.853Z,93.50
2018-08-24T03:47:32.403Z,93.50
2018-08-24T03:50:01.600Z,93.60
2018-08-24T03:52:30.174Z,93.60
2018-08-24T03:54:58.662Z,93.30
2018-08-24T03:57:27.208Z,93.50
2018-08-24T03:59:55.999Z,93.50
2018-08-24T04:02:24.556Z,93.50
2018-08-24T04:04:53.104Z,93.50
2018-08-24T04:07:21.653Z,93.20
2018-08-24T04:09:50.430Z,93.00
2018-08-24T04:12:19.064Z,93.00
2018-08-24T04:14:47.601Z,93.20
2018-08-24T04:17:21.427Z,93.10
2018-08-24T04:19:50.055Z,92.90
2018-08-24T04:22:18.614Z,92.80
2018-08-24T04:24:47.124Z,92.80
2018-08-24T04:27:15.671Z,93.00
2018-08-24T04:29:44.188Z,92.70
2018-08-24T04:32:12.730Z,92.70
2018-08-24T04:34:41.296Z,92.70
2018-08-24T04:37:09.846Z,92.80
2018-08-24T04:39:38.398Z,92.60
2018-08-24T04:42:07.021Z,92.80
2018-08-24T04:44:35.531Z,92.70
2018-08-24T04:47:04.204Z,92.50
2018-08-24T04:49:32.770Z,92.60
2018-08-24T04:52:01.352Z,92.50
2018-08-24T04:54:29.882Z,92.40
2018-08-24T04:56:58.449Z,92.40
2018-08-24T04:59:26.971Z,92.80
2018-08-24T05:01:55.534Z,92.40
2018-08-24T05:04:24.072Z,92.40
2018-08-24T05:06:52.605Z,92.10
2018-08-24T05:09:21.135Z,91.90
2018-08-24T05:11:49.704Z,92.00
2018-08-24T05:14:18.233Z,92.20
2018-08-24T05:16:46.799Z,92.20
2018-08-24T05:19:15.338Z,92.10
2018-08-24T05:21:44.216Z,92.10
2018-08-24T05:24:12.748Z,92.10
2018-08-24T05:26:41.268Z,92.00
2018-08-24T05:29:09.841Z,91.90
2018-08-24T05:31:38.349Z,91.90
2018-08-24T05:34:07.639Z,91.90
2018-08-24T05:36:36.159Z,91.90
2018-08-24T05:39:06.696Z,91.90
2018-08-24T05:41:35.313Z,91.80
2018-08-24T05:44:05.279Z,91.90
2018-08-24T05:46:34.080Z,91.80
2018-08-24T05:49:02.828Z,91.80
2018-08-24T05:51:31.452Z,91.90
2018-08-24T05:54:00.043Z,91.70
2018-08-24T05:56:28.551Z,91.70
2018-08-24T05:58:57.155Z,91.70
2018-08-24T06:01:25.678Z,91.90
2018-08-24T06:03:54.239Z,91.90
2018-08-24T06:06:22.766Z,92.00
2018-08-24T06:08:56.719Z,91.90
2018-08-24T06:11:25.388Z,91.90
2018-08-24T06:13:53.919Z,92.10
2018-08-24T06:16:22.477Z,92.20
2018-08-24T06:18:50.988Z,92.20
2018-08-24T06:21:19.552Z,92.30
2018-08-24T06:23:48.078Z,92.20
2018-08-24T06:26:16.614Z,92.20
2018-08-24T06:28:45.152Z,91.90
2018-08-24T06:31:13.693Z,91.70
2018-08-24T06:33:42.543Z,91.70
2018-08-24T06:36:11.108Z,91.60
2018-08-24T06:38:39.663Z,91.60
2018-08-24T06:41:08.207Z,91.50
2018-08-24T06:43:37.860Z,91.60
2018-08-24T06:46:06.776Z,91.30
2018-08-24T06:48:37.139Z,91.30
2018-08-24T06:51:06.075Z,91.10
2018-08-24T06:53:34.728Z,90.90
2018-08-24T06:56:03.173Z,90.60
2018-08-24T06:58:31.709Z,90.30
2018-08-24T07:01:00.313Z,89.90
2018-08-24T07:03:28.884Z,89.20
2018-08-24T07:05:57.506Z,88.90
2018-08-24T07:08:26.176Z,88.20
2018-08-24T07:10:54.705Z,87.60
2018-08-24T07:13:23.447Z,87.50
2018-08-24T07:15:51.991Z,86.90
2018-08-24T07:18:20.516Z,86.40
2018-08-24T07:20:49.056Z,85.70
2018-08-24T07:23:17.659Z,85.10
2018-08-24T07:25:46.233Z,85.40
2018-08-24T07:28:14.779Z,85.30
2018-08-24T07:30:43.345Z,84.70
2018-08-24T07:33:11.878Z,83.50
2018-08-24T07:35:40.457Z,82.00
2018-08-24T07:38:08.987Z,80.60
2018-08-24T07:40:37.533Z,79.60
2018-08-24T07:43:06.197Z,79.60
2018-08-24T07:45:34.958Z,79.40
2018-08-24T07:48:03.528Z,79.90
2018-08-24T07:50:32.059Z,79.30
2018-08-24T07:53:00.607Z,79.60
2018-08-24T07:55:29.134Z,79.80
2018-08-24T07:57:57.677Z,80.40
2018-08-24T08:00:26.204Z,80.70
2018-08-24T08:02:54.760Z,80.80
2018-08-24T08:05:23.386Z,81.10
2018-08-24T08:07:51.950Z,81.20
2018-08-24T08:10:20.491Z,80.60
2018-08-24T08:12:49.049Z,80.30
2018-08-24T08:15:17.592Z,80.60
2018-08-24T08:17:46.143Z,80.30
2018-08-24T08:20:14.707Z,79.80
2018-08-24T08:22:43.256Z,79.00
2018-08-24T08:25:11.835Z,79.20
2018-08-24T08:27:40.465Z,78.40
2018-08-24T08:30:09.106Z,77.60
2018-08-24T08:32:37.658Z,77.20
2018-08-24T08:35:06.225Z,76.00
2018-08-24T08:37:34.809Z,74.00
2018-08-24T08:40:04.512Z,72.50
2018-08-24T08:42:33.115Z,71.80
2018-08-24T08:45:01.670Z,71.80
2018-08-24T08:47:30.257Z,71.50
2018-08-24T08:49:58.797Z,70.10
2018-08-24T08:52:27.512Z,68.40
2018-08-24T08:54:56.205Z,68.10
2018-08-24T08:57:26.131Z,64.20
2018-08-24T08:59:54.819Z,66.40
2018-08-24T09:02:23.366Z,72.50
2018-08-24T09:04:51.952Z,80.30
2018-08-24T09:07:20.547Z,86.00
2018-08-24T09:09:49.087Z,88.90
2018-08-24T09:12:17.655Z,90.10
2018-08-24T09:14:46.189Z,90.20
2018-08-24T09:17:20.828Z,90.20
2018-08-24T09:19:54.743Z,90.00
2018-08-24T09:22:28.639Z,89.70
2018-08-24T09:25:02.549Z,89.50
2018-08-24T09:27:35.707Z,88.50
2018-08-24T09:30:05.687Z,88.70
2018-08-24T09:32:34.403Z,87.30
2018-08-24T09:35:02.875Z,85.60
2018-08-24T09:37:39.844Z,84.70
2018-08-24T09:40:08.705Z,83.60
2018-08-24T09:42:37.330Z,83.60
2018-08-24T09:45:06.248Z,82.90
2018-08-24T09:47:40.076Z,83.90
2018-08-24T09:50:14.374Z,83.30
2018-08-24T09:52:47.102Z,81.00
2018-08-24T09:55:15.686Z,80.30
2018-08-24T09:57:44.253Z,79.70
2018-08-24T10:00:12.826Z,78.20
2018-08-24T10:02:44.227Z,76.30
2018-08-24T10:05:18.153Z,75.00
2018-08-24T10:07:51.980Z,76.40
2018-08-24T10:10:20.557Z,73.60
2018-08-24T10:12:49.143Z,71.80
2018-08-24T10:15:17.761Z,70.70
2018-08-24T10:17:46.320Z,69.30
2018-08-24T10:20:14.917Z,68.70
2018-08-24T10:22:43.476Z,67.40
2018-08-24T10:25:12.117Z,66.60
2018-08-24T10:27:40.755Z,66.60
2018-08-24T10:30:09.359Z,67.50
2018-08-24T10:32:37.938Z,67.70
2018-08-24T10:35:06.578Z,67.90
2018-08-24T10:37:35.144Z,68.10
2018-08-24T10:40:03.759Z,68.50
2018-08-24T10:42:32.350Z,68.20
2018-08-24T10:45:01.092Z,68.40
2018-08-24T10:47:29.659Z,68.90
2018-08-24T10:49:58.303Z,69.30
2018-08-24T10:52:26.857Z,67.40
2018-08-24T10:54:55.491Z,66.30
2018-08-24T10:57:24.057Z,66.40
2018-08-24T10:59:52.665Z,65.60
2018-08-24T11:02:21.227Z,64.50
2018-08-24T11:04:49.819Z,64.90
2018-08-24T11:07:18.631Z,64.50
2018-08-24T11:09:47.226Z,64.90
2018-08-24T11:12:15.852Z,65.90
2018-08-24T11:14:44.480Z,66.40
2018-08-24T11:17:13.037Z,67.00
2018-08-24T11:19:41.660Z,67.20
2018-08-24T11:22:10.352Z,66.50
2018-08-24T11:24:38.960Z,66.70
2018-08-24T11:27:07.541Z,67.00
2018-08-24T11:29:36.167Z,66.80
2018-08-24T11:32:04.768Z,66.50
2018-08-24T11:34:33.340Z,65.20
2018-08-24T11:37:01.874Z,64.80
2018-08-24T11:39:30.467Z,65.30
2018-08-24T11:41:59.037Z,64.70
2018-08-24T11:44:27.805Z,64.80
2018-08-24T11:46:57.206Z,64.40
2018-08-24T11:49:28.414Z,63.40
2018-08-24T11:51:59.667Z,61.20
2018-08-24T11:54:30.864Z,58.80
2018-08-24T11:57:03.002Z,59.20
2018-08-24T11:59:31.696Z,58.10
2018-08-24T12:02:00.304Z,57.90
2018-08-24T12:04:28.884Z,58.00
2018-08-24T12:06:57.657Z,58.00
2018-08-24T12:09:26.279Z,57.20
2018-08-24T12:11:54.881Z,57.00
2018-08-24T12:14:23.458Z,57.20
2018-08-24T12:16:52.420Z,57.70
2018-08-24T12:19:21.340Z,57.70
2018-08-24T12:21:49.984Z,57.70
2018-08-24T12:24:18.565Z,57.80
2018-08-24T12:26:47.219Z,57.60
2018-08-24T12:29:15.868Z,57.40
2018-08-24T12:31:44.847Z,57.80
2018-08-24T12:34:13.841Z,58.10
2018-08-24T12:36:42.489Z,58.50
2018-08-24T12:39:12.187Z,58.80
2018-08-24T12:41:40.979Z,58.50
2018-08-24T12:44:09.568Z,58.50
2018-08-24T12:46:38.160Z,59.50
2018-08-24T12:49:06.760Z,59.90
2018-08-24T12:51:35.399Z,59.50
2018-08-24T12:54:04.158Z,59.80
2018-08-24T12:56:32.740Z,58.90
2018-08-24T12:59:01.438Z,58.60
2018-08-24T13:01:30.008Z,58.40
2018-08-24T13:03:58.550Z,58.90
2018-08-24T13:06:27.134Z,58.80
2018-08-24T13:08:55.949Z,59.10
2018-08-24T13:11:24.668Z,59.50
2018-08-24T13:13:53.262Z,59.90
2018-08-24T13:16:21.986Z,59.20
2018-08-24T13:18:50.595Z,58.90
2018-08-24T13:21:19.184Z,57.90
2018-08-24T13:23:47.777Z,58.10
2018-08-24T13:26:16.315Z,57.80
2018-08-24T13:28:44.923Z,58.90
2018-08-24T13:31:13.565Z,58.10
2018-08-24T13:33:42.134Z,57.90
2018-08-24T13:36:10.817Z,57.50
2018-08-24T13:38:39.390Z,58.10
2018-08-24T13:41:08.028Z,58.20
2018-08-24T13:43:36.628Z,57.10
2018-08-24T13:46:05.381Z,57.30
2018-08-24T13:48:33.936Z,57.50
2018-08-24T13:51:02.607Z,57.00
2018-08-24T13:53:31.258Z,56.70
2018-08-24T13:55:59.828Z,57.30
2018-08-24T13:58:28.723Z,56.80
2018-08-24T14:00:57.288Z,57.00
2018-08-24T14:03:25.940Z,56.80
2018-08-24T14:05:54.636Z,55.60
2018-08-24T14:08:23.199Z,54.90
2018-08-24T14:10:51.830Z,55.30
2018-08-24T14:13:20.569Z,54.80
2018-08-24T14:15:49.070Z,54.50
2018-08-24T14:18:19.231Z,54.40
2018-08-24T14:20:47.802Z,54.20
2018-08-24T14:23:16.468Z,54.00
2018-08-24T14:25:45.157Z,54.10
2018-08-24T14:28:20.372Z,54.00
2018-08-24T14:30:48.947Z,54.10
2018-08-24T14:33:17.817Z,53.20
2018-08-24T14:35:46.575Z,53.90
2018-08-24T14:38:15.301Z,53.70
2018-08-24T14:40:43.824Z,52.80
2018-08-24T14:43:12.503Z,52.40
2018-08-24T14:45:41.067Z,51.90
2018-08-24T14:48:09.679Z,51.60
2018-08-24T14:50:38.311Z,51.30
2018-08-24T14:53:06.984Z,51.10
2018-08-24T14:55:35.571Z,51.80
2018-08-24T14:58:04.283Z,51.80
2018-08-24T15:00:32.840Z,52.00
2018-08-24T15:03:01.733Z,52.30
2018-08-24T15:05:30.384Z,52.40
2018-08-24T15:07:59.072Z,52.70
2018-08-24T15:10:27.708Z,52.80
2018-08-24T15:12:56.596Z,52.90
2018-08-24T15:15:25.176Z,52.30
2018-08-24T15:17:53.942Z,52.20
2018-08-24T15:20:22.561Z,52.00
2018-08-24T15:22:51.169Z,51.70
2018-08-24T15:25:19.876Z,51.60
2018-08-24T15:27:48.603Z,51.50
2018-08-24T15:30:17.455Z,51.40
2018-08-24T15:32:46.048Z,51.00
2018-08-24T15:35:14.958Z,51.00
2018-08-24T15:37:43.607Z,50.70
2018-08-24T15:40:12.430Z,50.80
2018-08-24T15:42:40.992Z,51.00
2018-08-24T15:45:09.886Z,50.30
2018-08-24T15:47:38.486Z,50.00
2018-08-24T15:50:07.460Z,50.00
2018-08-24T15:52:36.200Z,49.90
2018-08-24T15:55:04.796Z,49.90
2018-08-24T15:57:33.605Z,49.80
2018-08-24T16:00:02.217Z,49.70
2018-08-24T16:02:30.805Z,49.80
2018-08-24T16:04:59.445Z,49.70
2018-08-24T16:07:28.051Z,49.50
2018-08-24T16:09:56.781Z,49.60
2018-08-24T16:12:25.491Z,49.70
2018-08-24T16:14:54.100Z,49.90
2018-08-24T16:17:22.672Z,49.90
2018-08-24T16:19:51.290Z,50.40
2018-08-24T16:22:19.835Z,50.60
2018-08-24T16:24:48.482Z,50.90
2018-08-24T16:27:22.553Z,50.60
2018-08-24T16:29:52.709Z,50.60
2018-08-24T16:32:23.675Z,50.90
2018-08-24T16:34:55.834Z,50.60
2018-08-24T16:37:30.785Z,51.00
2018-08-24T16:40:04.752Z,50.60
2018-08-24T16:42:33.836Z,51.40
2018-08-24T16:45:03.208Z,51.60
2018-08-24T16:47:32.034Z,51.90
2018-08-24T16:50:01.485Z,52.10
2018-08-24T16:52:37.377Z,52.30
2018-08-24T16:55:07.431Z,52.40
2018-08-24T16:57:37.188Z,53.80
2018-08-24T17:00:07.523Z,54.80
2018-08-24T17:02:37.343Z,55.90
2018-08-24T17:05:09.590Z,56.40
2018-08-24T17:07:38.637Z,56.80
2018-08-24T17:10:10.498Z,57.80
2018-08-24T17:12:40.709Z,58.60
2018-08-24T17:15:11.778Z,59.00
2018-08-24T17:17:41.566Z,59.40
2018-08-24T17:20:10.638Z,59.90
2018-08-24T17:22:40.829Z,60.40
2018-08-24T17:25:10.021Z,60.60
2018-08-24T17:27:42.563Z,60.80
2018-08-24T17:30:11.082Z,60.90
2018-08-24T17:32:39.676Z,61.20
2018-08-24T17:35:08.432Z,62.10
2018-08-24T17:40:15.320Z,62.50
2018-08-24T17:42:45.638Z,62.70
2018-08-24T17:45:15.322Z,63.30
2018-08-24T17:47:43.963Z,63.90
2018-08-24T17:50:12.679Z,64.40
2018-08-24T17:52:41.513Z,64.60
2018-08-24T17:55:11.055Z,65.10
2018-08-24T17:57:42.844Z,65.10
2018-08-24T18:00:11.530Z,65.20
2018-08-24T18:02:43.018Z,66.10
2018-08-24T18:05:12.497Z,65.50
2018-08-24T18:07:41.149Z,65.70
2018-08-24T18:10:09.758Z,65.90
2018-08-24T18:12:38.337Z,66.20
2018-08-24T18:15:07.075Z,66.60
2018-08-24T18:17:35.691Z,66.60
2018-08-24T18:20:05.187Z,66.90
2018-08-24T18:22:36.138Z,67.10
2018-08-24T18:25:06.433Z,67.50
2018-08-24T18:27:35.578Z,68.10
2018-08-24T18:30:06.022Z,68.30
2018-08-24T18:32:35.823Z,68.70
2018-08-24T18:35:06.320Z,69.10
2018-08-24T18:37:35.865Z,69.40
2018-08-24T18:45:48.355Z,70.80
2018-08-24T18:48:18.123Z,71.40
2018-08-24T18:50:48.156Z,71.60
2018-08-24T18:53:23.582Z,71.90
2018-08-24T18:55:55.389Z,72.20
2018-08-24T18:58:24.414Z,72.50
2018-08-24T19:00:53.742Z,72.80
2018-08-24T19:04:01.582Z,73.00
2018-08-24T19:06:30.529Z,73.60
2018-08-24T19:09:15.434Z,74.10
2018-08-24T19:17:20.080Z,75.00
2018-08-24T19:20:56.143Z,75.30
2018-08-24T19:23:25.886Z,75.50
2018-08-24T19:25:54.464Z,75.50
2018-08-24T19:31:45.115Z,76.40
2018-08-24T19:34:14.011Z,76.30
2018-08-24T19:36:42.737Z,76.20
2018-08-24T19:39:13.261Z,76.00
2018-08-24T19:41:47.655Z,76.10
2018-08-24T19:44:16.305Z,76.00
2018-08-24T19:46:45.407Z,75.70
2018-08-24T19:50:01.519Z,75.70
2018-08-24T19:52:30.123Z,75.90
2018-08-24T19:54:58.749Z,76.00
2018-08-24T19:57:32.476Z,76.00
2018-08-24T20:00:01.056Z,76.00
2018-08-24T20:02:29.605Z,75.70
2018-08-24T20:04:58.364Z,74.30
2018-08-24T20:07:32.343Z,73.30
2018-08-24T20:13:05.966Z,68.40
2018-08-24T20:15:39.984Z,65.90
2018-08-24T20:18:08.578Z,64.50
2018-08-24T20:20:37.136Z,63.30
2018-08-24T20:23:05.730Z,62.60
2018-08-24T20:25:34.362Z,62.50
2018-08-24T20:28:02.911Z,62.00
2018-08-24T20:30:47.864Z,61.20
2018-08-24T20:33:16.442Z,59.90
2018-08-24T20:35:45.041Z,59.10
2018-08-24T20:38:13.627Z,59.00
2018-08-24T20:40:42.842Z,58.60
2018-08-24T20:43:11.409Z,58.60
2018-08-24T20:45:39.956Z,59.30
2018-08-24T20:48:08.543Z,58.60
2018-08-24T20:50:37.095Z,58.90
2018-08-24T20:53:05.829Z,59.40
2018-08-24T20:55:34.385Z,59.60
2018-08-24T20:58:02.939Z,60.20
2018-08-24T21:00:31.529Z,60.20
2018-08-24T21:03:00.115Z,60.10
2018-08-24T21:05:28.627Z,60.50
2018-08-24T21:07:57.475Z,60.70
2018-08-24T21:10:26.069Z,61.10
2018-08-24T21:12:54.699Z,61.70
2018-08-24T21:15:23.245Z,62.30
2018-08-24T21:17:51.966Z,62.60
2018-08-24T21:20:20.567Z,62.90
2018-08-24T21:22:49.136Z,63.00
2018-08-24T21:25:19.023Z,63.00
2018-08-24T21:27:47.597Z,63.00
2018-08-24T21:30:16.267Z,63.10
2018-08-24T21:32:45.461Z,63.30
2018-08-24T21:35:14.991Z,63.60
2018-08-24T21:37:43.635Z,64.00
2018-08-24T21:40:12.155Z,64.30
2018-08-24T21:42:40.716Z,64.80
2018-08-24T21:45:09.600Z,65.50
2018-08-24T21:47:38.704Z,66.10
2018-08-24T21:50:08.500Z,67.20
2018-08-24T21:52:37.566Z,67.80
2018-08-24T21:55:06.302Z,68.90
2018-08-24T21:57:35.384Z,69.20
2018-08-24T22:00:04.600Z,70.30
2018-08-24T22:02:33.767Z,71.80
2018-08-24T22:05:02.616Z,72.80
2018-08-24T22:07:31.143Z,73.50
2018-08-24T22:09:59.689Z,73.30
2018-08-24T22:12:28.213Z,73.70
2018-08-24T22:14:56.807Z,74.80
2018-08-24T22:17:25.338Z,74.90
2018-08-24T22:19:54.448Z,74.90
2018-08-24T22:22:22.959Z,75.50
2018-08-24T22:24:51.666Z,75.50
2018-08-24T22:27:20.623Z,75.30
2018-08-24T22:29:49.259Z,75.90
2018-08-24T22:32:17.744Z,76.60
2018-08-24T22:34:46.276Z,77.30
2018-08-24T22:37:14.805Z,77.30
2018-08-24T22:39:43.375Z,78.10
2018-08-24T22:42:11.903Z,78.30
2018-08-24T22:44:40.495Z,78.40
2018-08-24T22:47:09.625Z,78.80
2018-08-24T22:49:38.217Z,79.40
2018-08-24T22:52:07.216Z,79.80
2018-08-24T22:54:35.784Z,81.50
2018-08-24T22:57:04.387Z,81.30
2018-08-24T22:59:32.987Z,80.70
2018-08-24T23:02:01.488Z,80.90
2018-08-24T23:04:30.018Z,80.50
2018-08-24T23:06:58.547Z,80.30
2018-08-24T23:09:27.091Z,80.00
2018-08-24T23:11:55.624Z,79.90
2018-08-24T23:14:24.199Z,79.80
2018-08-24T23:16:52.721Z,79.60
2018-08-24T23:19:21.275Z,79.40
2018-08-24T23:21:49.840Z,79.50
2018-08-24T23:24:18.424Z,79.90
2018-08-24T23:26:46.959Z,80.10
2018-08-24T23:29:15.522Z,80.00
2018-08-24T23:31:44.032Z,79.80
2018-08-24T23:34:12.622Z,79.90
2018-08-24T23:36:41.155Z,80.20
2018-08-24T23:39:10.879Z,80.40
2018-08-24T23:41:39.449Z,80.70
2018-08-24T23:44:08.486Z,81.20
2018-08-24T23:46:37.140Z,82.50
2018-08-24T23:49:06.127Z,83.20
2018-08-24T23:51:34.675Z,84.00
2018-08-24T23:54:03.192Z,84.50
2018-08-24T23:56:31.755Z,84.60
2018-08-24T23:59:00.271Z,85.10
